Terminal Aerodrome Forecast
Issued by NWS

Home | Current Version | Previous Version | Text Only | Print | Product List | Glossary On
Versions: 1 2 3 4 5 6 7 8 9 10 11 12 13 14 15 16 17 18 19
642
FTUS41 KCAR 072333
TAFHUL
TAF
KHUL 072333Z 0800/0824 20006KT P6SM SCT025 BKN035
     FM080200 20007KT P6SM BKN015
     FM080600 22005KT 2SM BR BKN025
     FM081300 23005KT P6SM BKN050
     FM081600 23006KT P6SM BKN030=

USA.gov is the U.S. government's official web portal to all federal, state and local government web resources and services.